Time;durP1;ratioP1;P1;durP2;ratioP2;P2;SDS_P1;SDS_P2;PMS_P1;PMS_P2;Temp;Humidity;BMP_temperature;BMP_pressure;BME280_temperature;BME280_humidity;BME280_pressure;Samples;Min_cycle;Max_cycle;Signal;HPM_P1;HPM_P2
2023/05/15 09:25:36;;;;;;;4.50;2.63;;;;;;;22.42;43.47;99377.63;1086549;54;20083;-85
2023/05/15 09:27:48;;;;;;;5.07;2.50;;;;;;;22.39;43.28;99375.31;1087274;54;20050;-86
2023/05/15 09:28:51;;;;;;;;;;;;;;;22.50;41.56;99374.53;1087045;47;20022;-85
2023/05/15 09:29:56;;;;;;;4.35;2.80;;;;;;;22.48;43.07;99379.41;1086776;54;21108;-86
2023/05/15 09:32:05;;;;;;;4.32;3.10;;;;;;;21.74;43.63;99374.41;1086793;54;20018;-84
2023/05/15 09:33:11;;;;;;;4.30;2.42;;;;;;;22.08;43.49;99380.09;1087230;54;20033;-85
2023/05/15 09:34:12;;;;;;;4.75;2.75;;;;;;;22.17;43.37;99378.69;1087139;54;20058;-85
2023/05/15 09:35:30;;;;;;;6.38;3.05;;;;;;;21.83;43.26;99375.72;1086901;47;20169;-86
2023/05/15 09:36:34;;;;;;;5.20;3.00;;;;;;;21.34;44.32;99373.97;1087379;46;20082;-85
2023/05/15 09:37:35;;;;;;;5.00;3.00;;;;;;;21.46;44.47;99375.84;1087493;54;20025;-85
2023/05/15 09:38:46;;;;;;;4.18;2.35;;;;;;;21.86;43.63;99375.25;1087490;54;20123;-84
2023/05/15 09:39:48;;;;;;;4.05;2.58;;;;;;;22.15;43.41;99371.84;1087009;54;20061;-85
2023/05/15 09:42:08;;;;;;;4.43;3.00;;;;;;;22.34;42.48;99370.59;1087519;54;20032;-84
2023/05/15 09:43:10;;;;;;;5.88;3.13;;;;;;;22.22;43.05;99373.34;1087471;54;20031;-85
2023/05/15 09:44:21;;;;;;;4.43;2.53;;;;;;;22.53;42.76;99351.44;1087449;46;20094;-86
2023/05/15 09:47:36;;;;;;;8.13;3.10;;;;;;;21.30;44.88;99361.88;1087853;54;20106;-88
2023/05/15 09:51:17;;;;;;;4.10;2.70;;;;;;;21.66;44.74;99357.38;1087263;46;20367;-85
2023/05/15 09:52:22;;;;;;;5.68;2.83;;;;;;;21.96;44.29;99361.06;1087266;54;20035;-86
2023/05/15 09:54:29;;;;;;;4.53;2.95;;;;;;;21.04;45.52;99360.38;1087977;54;20042;-85
2023/05/15 09:55:34;;;;;;;3.95;2.63;;;;;;;21.31;44.93;99357.25;1087803;54;20034;-84
2023/05/15 10:03:19;;;;;;;5.57;2.65;;;;;;;22.31;42.73;99352.03;1082166;54;20968;-88
2023/05/15 10:04:20;;;;;;;5.00;3.05;;;;;;;22.54;42.37;99343.03;1087345;46;20014;-85
2023/05/15 10:05:29;;;;;;;4.50;2.90;;;;;;;22.74;41.14;99339.06;1091701;39;20780;-87
2023/05/15 10:07:39;;;;;;;5.28;2.60;;;;;;;23.22;40.14;99342.41;1087248;47;20058;-87
2023/05/15 10:08:40;;;;;;;5.03;3.40;;;;;;;23.43;39.93;99340.88;1087254;46;20129;-86
2023/05/15 10:09:43;;;;;;;3.78;2.28;;;;;;;23.63;39.79;99342.28;1087226;46;20106;-86
2023/05/15 10:10:48;;;;;;;4.70;3.00;;;;;;;23.26;39.87;99340.88;1087218;47;20104;-85
2023/05/15 10:12:58;;;;;;;4.95;2.80;;;;;;;22.37;40.32;99342.09;1087725;54;20023;-87
2023/05/15 10:18:07;;;;;;;4.90;2.90;;;;;;;21.53;42.47;99340.41;1081363;46;20037;31
2023/05/15 10:19:25;;;;;;;5.07;2.67;;;;;;;21.33;42.93;99342.41;1084297;46;19945;-88
2023/05/15 10:20:30;;;;;;;4.63;2.58;;;;;;;21.56;42.94;99342.66;1088624;39;20572;-86
2023/05/15 10:22:40;;;;;;;8.68;4.47;;;;;;;21.94;42.32;99331.34;1087836;54;20017;-87
2023/05/15 10:24:48;;;;;;;6.25;3.60;;;;;;;21.96;42.56;99326.50;1087961;54;20037;-87
2023/05/15 10:26:01;;;;;;;4.55;3.13;;;;;;;22.09;42.39;99330.06;1087758;54;20034;-86
2023/05/15 10:27:08;;;;;;;5.00;3.28;;;;;;;22.10;41.93;99323.56;1087154;46;20049;-85
2023/05/15 10:34:27;;;;;;;4.57;2.97;;;;;;;23.18;39.25;99300.34;1078431;39;20915;-86
2023/05/15 10:35:32;;;;;;;4.03;2.70;;;;;;;23.58;39.09;99301.28;1087153;47;20041;-86
2023/05/15 10:37:38;;;;;;;4.75;2.50;;;;;;;23.60;38.62;99299.16;1087799;54;20002;-86
2023/05/15 10:41:19;;;;;;;6.30;2.60;;;;;;;22.90;38.63;99297.41;1087592;39;20307;-87
2023/05/15 10:42:21;;;;;;;4.80;2.83;;;;;;;23.14;38.52;99302.75;1086787;54;20026;-85
2023/05/15 10:43:26;;;;;;;5.95;2.80;;;;;;;22.33;39.38;99298.19;1087081;47;21006;-86
2023/05/15 10:48:17;;;;;;;4.38;2.60;;;;;;;22.16;38.87;99289.09;1087508;54;19999;-85
2023/05/15 10:49:40;;;;;;;4.18;2.30;;;;;;;22.43;38.02;99289.41;1087480;47;20026;-86
2023/05/15 10:53:37;;;;;;;4.32;2.40;;;;;;;22.59;38.07;99274.22;1084407;54;20007;-86
2023/05/15 10:58:30;;;;;;;5.43;3.08;;;;;;;21.35;40.76;99283.16;1086279;54;20047;-85
2023/05/15 11:04:14;;;;;;;5.40;2.47;;;;;;;22.04;38.76;99275.50;1082632;39;20269;-86
2023/05/15 11:05:29;;;;;;;4.30;2.17;;;;;;;21.89;38.84;99270.56;1087114;47;20026;-87
2023/05/15 11:06:32;;;;;;;4.57;2.72;;;;;;;22.12;38.97;99269.69;1087011;54;20039;-85
2023/05/15 11:08:45;;;;;;;4.10;2.55;;;;;;;22.00;38.67;99268.91;1086791;47;20026;-85
2023/05/15 11:10:53;;;;;;;5.60;2.95;;;;;;;21.28;40.10;99266.16;1087534;54;20041;-85
2023/05/15 22:36:30;;;;;;;8.38;5.72;;;;;;;14.45;69.20;99545.09;1086993;54;20030;-84
2023/05/15 22:37:35;;;;;;;6.68;5.30;;;;;;;14.44;69.29;99539.91;1087914;46;20026;-84
2023/05/15 22:38:39;;;;;;;6.45;5.15;;;;;;;14.39;69.38;99540.47;1087372;46;20026;-86
2023/05/15 22:39:41;;;;;;;7.70;5.45;;;;;;;14.40;69.57;99538.63;1086994;47;20034;-85
2023/05/15 22:40:45;;;;;;;7.65;5.78;;;;;;;14.37;69.63;99539.81;1087023;54;20086;-86
2023/05/15 22:41:46;;;;;;;8.15;5.65;;;;;;;14.37;69.77;99547.88;1087313;47;20045;-86
2023/05/15 22:42:51;;;;;;;7.00;5.13;;;;;;;14.40;69.72;99539.44;1087570;54;20054;-85
2023/05/15 22:43:52;;;;;;;7.75;5.55;;;;;;;14.39;69.88;99545.03;1087802;54;20042;-86
2023/05/15 22:44:58;;;;;;;6.78;5.07;;;;;;;14.39;69.97;99537.78;1087407;47;20026;-87
2023/05/15 22:46:00;;;;;;;8.05;5.43;;;;;;;14.36;70.30;99543.50;1087748;47;20022;-86
2023/05/15 22:47:04;;;;;;;8.80;5.97;;;;;;;14.31;70.25;99537.84;1087221;54;20095;-86
2023/05/15 22:48:51;;;;;;;8.80;6.35;;;;;;;14.28;70.76;99544.44;1091890;31;20750;-85
2023/05/15 22:49:53;;;;;;;7.15;5.35;;;;;;;14.18;70.83;99530.41;1087611;54;20026;-87
2023/05/15 22:50:58;;;;;;;7.78;5.40;;;;;;;14.19;70.97;99535.59;1087396;47;20026;-87
2023/05/15 22:52:03;;;;;;;7.55;5.72;;;;;;;14.15;71.06;99528.91;1087330;47;20033;-86
2023/05/15 22:53:07;;;;;;;7.68;5.85;;;;;;;14.08;71.44;99533.31;1087801;54;20038;-84
2023/05/15 22:54:08;;;;;;;7.38;5.97;;;;;;;14.13;71.50;99530.09;1087989;54;20053;-88
2023/05/15 22:55:18;;;;;;;6.70;5.45;;;;;;;14.13;71.38;99525.56;1087721;47;20049;-87
2023/05/15 22:56:20;;;;;;;7.70;5.25;;;;;;;14.14;71.35;99532.63;1089636;39;20989;-87
2023/05/15 22:57:30;;;;;;;7.80;5.88;;;;;;;14.14;71.49;99531.78;1088045;47;20033;-87
2023/05/15 22:58:31;;;;;;;7.80;5.90;;;;;;;14.22;71.44;99534.38;1087906;54;20078;-85
2023/05/15 22:59:38;;;;;;;7.28;5.95;;;;;;;14.19;71.44;99538.28;1087611;47;20030;-84
2023/05/15 23:00:39;;;;;;;6.63;5.00;;;;;;;14.25;71.23;99533.22;1087613;47;20058;-86
2023/05/15 23:01:43;;;;;;;6.32;4.93;;;;;;;14.28;71.04;99536.38;1087584;47;20027;-89
2023/05/15 23:02:44;;;;;;;7.80;6.10;;;;;;;14.27;71.57;99540.06;1087417;47;20049;-87
2023/05/15 23:03:48;;;;;;;6.50;5.22;;;;;;;14.31;71.05;99527.09;1087454;46;20037;-87
2023/05/15 23:04:49;;;;;;;6.18;4.78;;;;;;;14.33;70.93;99530.44;1087194;54;20061;-87
2023/05/15 23:05:56;;;;;;;7.45;5.38;;;;;;;14.37;70.90;99531.75;1088254;39;20694;-87
2023/05/15 23:06:57;;;;;;;7.10;5.45;;;;;;;14.38;70.85;99530.72;1087215;54;20915;-87
2023/05/15 23:08:09;;;;;;;6.60;5.00;;;;;;;14.40;71.27;99528.69;1087263;47;20453;-86
2023/05/15 23:09:11;;;;;;;6.45;4.75;;;;;;;14.40;71.04;99531.38;1087457;46;20038;-87
2023/05/15 23:10:14;;;;;;;6.47;4.70;;;;;;;14.43;70.61;99536.41;1087242;47;20105;-87
2023/05/15 23:11:15;;;;;;;9.20;5.35;;;;;;;14.37;70.80;99534.44;1087429;46;20130;-85
2023/05/15 23:12:19;;;;;;;6.95;5.38;;;;;;;14.45;70.92;99528.97;1089080;39;20879;-87
2023/05/15 23:13:22;;;;;;;6.93;5.10;;;;;;;14.48;70.72;99539.38;1087144;54;20026;-87
2023/05/15 23:14:26;;;;;;;7.45;5.82;;;;;;;14.41;70.72;99529.50;1087189;47;20030;-86
2023/05/15 23:15:29;;;;;;;7.38;5.47;;;;;;;14.46;70.61;99527.13;1087204;47;20033;-86
2023/05/15 23:16:30;;;;;;;7.10;5.38;;;;;;;14.50;70.88;99531.97;1087060;54;20031;-86
2023/05/15 23:17:34;;;;;;;6.88;5.43;;;;;;;14.43;70.78;99530.19;1087111;46;20034;-86
2023/05/15 23:18:35;;;;;;;6.97;5.30;;;;;;;14.39;70.86;99529.72;1087054;46;20034;-86
2023/05/15 23:19:39;;;;;;;7.25;5.35;;;;;;;14.43;70.98;99531.03;1087046;54;20115;-86
2023/05/15 23:20:40;;;;;;;6.03;4.78;;;;;;;14.45;71.08;99528.97;1086979;46;20041;-88
2023/05/15 23:21:45;;;;;;;6.65;5.22;;;;;;;14.46;70.97;99533.34;1087114;47;20030;-87
2023/05/15 23:22:45;;;;;;;7.22;5.22;;;;;;;14.46;70.79;99529.81;1087376;54;20110;-86
